createdAt,value
2022-12-01T00:01:44.954Z,8.73
2022-12-01T00:04:11.648Z,7.97
2022-12-01T00:06:39.581Z,6.87
2022-12-01T00:09:06.138Z,8.43
2022-12-01T00:11:33.565Z,8.93
2022-12-01T00:14:00.278Z,8.20
2022-12-01T00:16:26.928Z,8.10
2022-12-01T00:18:53.665Z,8.30
2022-12-01T00:21:22.955Z,8.23
2022-12-01T00:23:52.944Z,8.53
2022-12-01T00:26:20.901Z,7.13
2022-12-01T00:28:48.864Z,7.53
2022-12-01T00:31:15.506Z,7.77
2022-12-01T00:33:42.084Z,7.93
2022-12-01T00:36:09.346Z,7.60
2022-12-01T00:38:36.054Z,8.53
2022-12-01T00:41:04.262Z,8.43
2022-12-01T00:43:30.942Z,8.03
2022-12-01T00:45:57.649Z,8.03
2022-12-01T00:48:24.856Z,9.00
2022-12-01T00:50:52.518Z,9.17
2022-12-01T00:53:19.194Z,8.37
2022-12-01T00:55:45.781Z,9.10
2022-12-01T00:58:13.744Z,8.50
2022-12-01T01:00:40.413Z,8.30
2022-12-01T01:03:07.413Z,9.10
2022-12-01T01:05:35.477Z,10.03
2022-12-01T01:08:02.225Z,9.03
2022-12-01T01:10:28.855Z,9.57
2022-12-01T01:12:55.418Z,8.43
2022-12-01T01:15:23.399Z,9.70
2022-12-01T01:17:49.977Z,9.33
2022-12-01T01:20:16.633Z,10.40
2022-12-01T01:22:43.236Z,9.13
2022-12-01T01:25:09.816Z,8.23
2022-12-01T01:27:36.383Z,8.90
2022-12-01T01:30:04.033Z,9.73
2022-12-01T01:32:31.996Z,8.73
2022-12-01T01:34:58.571Z,9.33
2022-12-01T01:37:25.166Z,8.37
2022-12-01T01:39:51.718Z,9.03
2022-12-01T01:42:19.855Z,8.87
2022-12-01T01:44:51.617Z,9.37
2022-12-01T01:47:21.873Z,9.13
2022-12-01T01:49:50.262Z,9.40
2022-12-01T01:52:18.090Z,8.90
2022-12-01T01:54:47.799Z,9.60
2022-12-01T01:57:19.683Z,10.63
2022-12-01T01:59:52.112Z,9.67
2022-12-01T02:02:18.711Z,9.73
2022-12-01T02:04:48.632Z,8.60
2022-12-01T02:07:19.050Z,8.73
2022-12-01T02:09:45.896Z,8.53
2022-12-01T02:12:25.866Z,8.83
2022-12-01T02:15:05.655Z,10.03
2022-12-01T02:17:42.121Z,9.40
2022-12-01T02:20:34.202Z,9.30
2022-12-01T02:23:33.484Z,10.00
2022-12-01T02:26:15.252Z,9.27
2022-12-01T02:28:56.401Z,8.93
2022-12-01T02:31:30.691Z,9.37
2022-12-01T02:34:01.973Z,9.20
2022-12-01T02:36:34.950Z,8.87
2022-12-01T02:39:06.940Z,9.20
2022-12-01T02:41:38.320Z,8.03
2022-12-01T02:44:11.081Z,8.77
2022-12-01T02:46:44.219Z,9.37
2022-12-01T02:49:15.654Z,8.70
2022-12-01T02:51:44.755Z,7.53
2022-12-01T02:54:13.317Z,8.60
2022-12-01T02:56:40.054Z,8.43
2022-12-01T02:59:09.371Z,8.57
2022-12-01T03:01:48.282Z,9.17
2022-12-01T03:04:35.633Z,8.27
2022-12-01T03:07:10.034Z,9.47
2022-12-01T03:09:46.524Z,8.33
2022-12-01T03:12:20.749Z,8.90
2022-12-01T03:14:56.927Z,9.10
2022-12-01T03:17:30.541Z,9.30
2022-12-01T03:20:04.684Z,8.93
2022-12-01T03:22:37.243Z,9.37
2022-12-01T03:25:05.353Z,10.27
2022-12-01T03:27:36.744Z,9.80
2022-12-01T03:30:04.805Z,11.87
2022-12-01T03:32:37.031Z,9.00
2022-12-01T03:35:08.017Z,8.93
2022-12-01T03:37:40.579Z,8.50
2022-12-01T03:40:10.178Z,8.13
2022-12-01T03:42:41.347Z,8.00
2022-12-01T03:45:14.084Z,7.87
2022-12-01T03:47:42.119Z,9.70
2022-12-01T03:50:11.651Z,9.83
2022-12-01T03:52:43.272Z,8.70
2022-12-01T03:55:14.170Z,9.27
2022-12-01T03:57:45.401Z,9.33
2022-12-01T04:00:14.413Z,9.83
2022-12-01T04:02:42.877Z,9.17
2022-12-01T04:05:09.552Z,8.77
2022-12-01T04:07:36.238Z,8.83
2022-12-01T04:10:03.155Z,7.63
2022-12-01T04:12:29.739Z,8.10
2022-12-01T04:14:57.182Z,8.10
2022-12-01T04:17:24.099Z,8.23
2022-12-01T04:19:52.110Z,8.13
2022-12-01T04:22:18.755Z,7.80
2022-12-01T04:24:45.906Z,7.17
2022-12-01T04:27:12.996Z,8.33
2022-12-01T04:29:39.681Z,9.03
2022-12-01T04:32:06.443Z,8.27
2022-12-01T04:34:33.174Z,8.40
2022-12-01T04:37:01.166Z,9.67
2022-12-01T04:39:27.744Z,8.93
2022-12-01T04:41:54.320Z,8.50
2022-12-01T04:44:20.863Z,8.53
2022-12-01T04:46:47.628Z,8.70
2022-12-01T04:49:14.207Z,9.27
2022-12-01T04:51:40.797Z,8.67
2022-12-01T04:54:08.774Z,8.23
2022-12-01T04:56:35.326Z,7.50
2022-12-01T04:59:01.858Z,8.30
2022-12-01T05:01:28.468Z,8.33
2022-12-01T05:03:55.142Z,7.83
2022-12-01T05:06:23.691Z,8.70
2022-12-01T05:08:51.405Z,8.00
2022-12-01T05:11:19.963Z,7.23
2022-12-01T05:13:48.148Z,8.40
2022-12-01T05:16:16.800Z,7.70
2022-12-01T05:18:43.414Z,7.10
2022-12-01T05:21:11.300Z,7.80
2022-12-01T05:23:38.647Z,7.20
2022-12-01T05:26:07.088Z,6.87
2022-12-01T05:28:35.583Z,7.27
2022-12-01T05:31:02.490Z,7.47
2022-12-01T05:33:30.036Z,7.27
2022-12-01T05:35:56.687Z,8.20
2022-12-01T05:38:23.266Z,7.13
2022-12-01T05:40:50.915Z,8.77
2022-12-01T05:43:17.508Z,7.33
2022-12-01T05:45:45.505Z,7.90
2022-12-01T05:48:12.144Z,7.17
2022-12-01T05:50:39.583Z,8.90
2022-12-01T05:53:06.217Z,7.43
2022-12-01T05:55:33.279Z,8.03
2022-12-01T05:57:59.894Z,6.63
2022-12-01T06:00:26.594Z,7.20
2022-12-01T06:02:54.516Z,7.60
2022-12-01T06:05:21.090Z,8.13
2022-12-01T06:07:47.732Z,8.30
2022-12-01T06:10:14.373Z,7.70
2022-12-01T06:12:40.917Z,8.20
2022-12-01T06:15:08.904Z,7.23
2022-12-01T06:17:39.992Z,6.90
2022-12-01T06:20:10.372Z,5.83
2022-12-01T06:22:36.939Z,6.47
2022-12-01T06:25:04.013Z,5.93
2022-12-01T06:27:30.588Z,6.87
2022-12-01T06:29:57.105Z,7.13
2022-12-01T06:32:23.699Z,7.83
2022-12-01T06:34:50.489Z,8.17
2022-12-01T06:37:18.513Z,7.07
2022-12-01T06:39:45.074Z,7.80
2022-12-01T06:42:11.631Z,7.27
2022-12-01T06:44:38.357Z,7.53
2022-12-01T06:47:04.944Z,7.37
2022-12-01T06:49:31.490Z,7.53
2022-12-01T06:51:59.899Z,7.33
2022-12-01T06:54:29.022Z,7.67
2022-12-01T06:56:55.549Z,7.80
2022-12-01T06:59:22.355Z,7.53
2022-12-01T07:01:49.359Z,7.47
2022-12-01T07:04:15.949Z,8.40
2022-12-01T07:06:42.485Z,7.10
2022-12-01T07:09:09.070Z,6.30
2022-12-01T07:11:37.022Z,6.07
2022-12-01T07:14:03.569Z,6.33
2022-12-01T07:16:30.177Z,6.93
2022-12-01T07:18:56.791Z,6.00
2022-12-01T07:21:23.392Z,6.43
2022-12-01T07:23:49.938Z,6.23
2022-12-01T07:26:18.435Z,6.10
2022-12-01T07:28:46.399Z,6.90
2022-12-01T07:31:15.075Z,6.37
2022-12-01T07:33:41.923Z,7.13
2022-12-01T07:36:09.425Z,6.67
2022-12-01T07:38:36.356Z,6.67
2022-12-01T07:41:03.455Z,7.00
2022-12-01T07:43:30.656Z,7.17
2022-12-01T07:46:07.231Z,7.27
2022-12-01T07:48:33.903Z,6.60
2022-12-01T07:51:00.464Z,6.70
2022-12-01T07:53:27.036Z,6.73
2022-12-01T07:55:53.595Z,6.20
2022-12-01T07:58:20.143Z,6.63
2022-12-01T08:00:46.724Z,6.70
2022-12-01T08:03:15.020Z,6.37
2022-12-01T08:05:41.694Z,6.73
2022-12-01T08:08:08.409Z,7.87
2022-12-01T08:10:35.372Z,6.67
2022-12-01T08:13:01.938Z,7.07
2022-12-01T08:15:28.561Z,7.17
2022-12-01T08:17:55.199Z,7.70
2022-12-01T08:20:24.156Z,7.30
2022-12-01T08:22:50.855Z,6.57
2022-12-01T08:25:17.391Z,6.70
2022-12-01T08:27:43.927Z,6.57
2022-12-01T08:30:11.348Z,6.57
2022-12-01T08:32:37.903Z,7.33
2022-12-01T08:35:05.219Z,7.33
2022-12-01T08:37:33.157Z,7.17
2022-12-01T08:39:59.735Z,6.40
2022-12-01T08:42:26.348Z,7.00
2022-12-01T08:44:52.998Z,7.37
2022-12-01T08:47:19.563Z,8.20
2022-12-01T08:49:46.264Z,8.00
2022-12-01T08:52:13.147Z,7.80
2022-12-01T08:54:41.050Z,6.90
2022-12-01T08:57:07.650Z,6.63
2022-12-01T08:59:34.282Z,6.77
2022-12-01T09:02:06.659Z,6.17
2022-12-01T09:04:33.594Z,5.73
2022-12-01T09:07:00.173Z,5.60
2022-12-01T09:09:28.392Z,5.97
2022-12-01T09:11:57.184Z,6.20
2022-12-01T09:14:23.848Z,5.90
2022-12-01T09:16:50.922Z,5.83
2022-12-01T09:19:24.049Z,5.90
2022-12-01T09:21:51.877Z,6.10
2022-12-01T09:24:18.420Z,6.63
2022-12-01T09:26:44.975Z,6.03
2022-12-01T09:29:15.031Z,6.27
2022-12-01T09:31:42.418Z,5.83
2022-12-01T09:34:13.454Z,5.50
2022-12-01T09:36:40.043Z,6.10
2022-12-01T09:39:08.232Z,5.77
2022-12-01T09:41:37.881Z,6.83
2022-12-01T09:44:15.576Z,6.57
2022-12-01T09:46:46.800Z,6.00
2022-12-01T09:49:18.455Z,6.20
2022-12-01T09:51:45.108Z,6.13
2022-12-01T09:54:14.237Z,6.63
2022-12-01T09:56:44.543Z,6.47
2022-12-01T09:59:19.427Z,8.07
2022-12-01T10:01:50.006Z,6.70
2022-12-01T10:04:20.714Z,6.37
2022-12-01T10:06:51.511Z,6.70
2022-12-01T10:09:23.416Z,7.87
2022-12-01T10:11:54.314Z,7.07
2022-12-01T10:14:22.248Z,7.77
2022-12-01T10:16:55.906Z,7.17
2022-12-01T10:19:27.953Z,6.77
2022-12-01T10:22:17.892Z,6.93
2022-12-01T10:24:54.234Z,6.57
2022-12-01T10:27:32.993Z,6.63
2022-12-01T10:30:06.019Z,6.43
2022-12-01T10:32:41.666Z,7.07
2022-12-01T10:35:11.700Z,7.40
2022-12-01T10:37:38.609Z,7.20
2022-12-01T10:40:11.907Z,6.43
2022-12-01T10:42:42.135Z,6.30
2022-12-01T10:45:16.483Z,6.47
2022-12-01T10:48:08.212Z,7.60
2022-12-01T10:50:35.530Z,6.83
2022-12-01T10:53:02.505Z,6.77
2022-12-01T10:55:32.285Z,7.73
2022-12-01T10:58:07.695Z,6.97
2022-12-01T11:03:31.795Z,7.07
2022-12-01T11:06:00.548Z,6.10
2022-12-01T11:08:33.596Z,6.10
2022-12-01T11:11:01.260Z,6.90
2022-12-01T11:13:30.012Z,7.03
2022-12-01T11:16:00.147Z,6.80
2022-12-01T11:18:31.622Z,7.37
2022-12-01T11:21:07.903Z,7.67
2022-12-01T11:23:36.677Z,7.20
2022-12-01T11:26:09.794Z,6.53
2022-12-01T11:28:38.381Z,6.73
2022-12-01T11:31:08.467Z,6.73
2022-12-01T11:33:45.056Z,7.23
2022-12-01T11:36:19.977Z,6.60
2022-12-01T11:38:47.648Z,6.93
2022-12-01T11:41:26.951Z,6.63
2022-12-01T11:44:01.440Z,6.93
2022-12-01T11:46:32.773Z,7.20
2022-12-01T11:49:00.020Z,6.70
2022-12-01T11:51:30.059Z,7.43
2022-12-01T11:54:06.649Z,7.47
2022-12-01T11:56:33.215Z,6.63
2022-12-01T11:59:02.237Z,7.10
2022-12-01T12:01:40.157Z,6.63
2022-12-01T12:04:20.113Z,7.07
2022-12-01T12:06:53.382Z,7.90
2022-12-01T12:09:34.589Z,6.90
2022-12-01T12:12:13.050Z,7.47
2022-12-01T12:14:56.103Z,7.30
2022-12-01T12:17:35.997Z,8.67
2022-12-01T12:20:24.766Z,7.97
2022-12-01T12:23:05.524Z,6.80
2022-12-01T12:25:53.595Z,7.07
2022-12-01T12:28:35.379Z,7.63
2022-12-01T12:31:10.345Z,7.47
2022-12-01T12:33:53.352Z,8.03
2022-12-01T12:36:31.022Z,7.93
2022-12-01T12:39:18.329Z,7.03
2022-12-01T12:41:46.444Z,7.07
2022-12-01T12:44:37.378Z,6.50
2022-12-01T12:47:18.337Z,6.63
2022-12-01T12:49:54.337Z,6.60
2022-12-01T12:52:25.625Z,6.53
2022-12-01T12:54:57.206Z,7.17
2022-12-01T12:57:29.376Z,7.63
2022-12-01T13:00:00.100Z,6.47
2022-12-01T13:02:33.011Z,6.37
2022-12-01T13:05:06.486Z,6.33
2022-12-01T13:07:40.128Z,7.47
2022-12-01T13:10:16.228Z,7.13
2022-12-01T13:12:49.284Z,7.63
2022-12-01T13:15:18.741Z,7.30
2022-12-01T13:17:49.909Z,6.67
2022-12-01T13:20:27.805Z,6.27
2022-12-01T13:22:57.709Z,7.23
2022-12-01T13:25:27.673Z,7.03
2022-12-01T13:27:55.961Z,6.83
2022-12-01T13:30:25.041Z,6.67
2022-12-01T13:32:59.726Z,6.50
2022-12-01T13:35:30.913Z,6.77
2022-12-01T13:38:18.420Z,7.17
2022-12-01T13:40:45.715Z,6.23
2022-12-01T13:43:18.055Z,6.57
2022-12-01T13:45:44.924Z,6.73
2022-12-01T13:48:28.565Z,6.63
2022-12-01T13:51:00.196Z,6.47
2022-12-01T13:53:32.073Z,6.37
2022-12-01T13:56:21.452Z,6.27
2022-12-01T13:58:49.884Z,6.27
2022-12-01T14:01:42.474Z,6.43
2022-12-01T14:04:29.738Z,6.93
2022-12-01T14:07:26.581Z,6.77
2022-12-01T14:09:56.073Z,7.27
2022-12-01T14:12:27.373Z,7.30
2022-12-01T14:14:59.250Z,6.83
2022-12-01T14:17:29.038Z,7.20
2022-12-01T14:19:56.236Z,7.57
2022-12-01T14:22:36.958Z,6.23
2022-12-01T14:25:04.973Z,7.33
2022-12-01T14:27:40.311Z,7.67
2022-12-01T14:30:43.954Z,7.87
2022-12-01T14:33:46.085Z,7.40
2022-12-01T14:36:29.043Z,7.13
2022-12-01T14:39:04.007Z,6.70
2022-12-01T14:41:37.952Z,6.53
2022-12-01T14:44:09.800Z,7.60
2022-12-01T14:46:42.858Z,7.70
2022-12-01T14:49:17.391Z,7.47
2022-12-01T14:51:47.115Z,7.30
2022-12-01T14:54:23.941Z,7.23
2022-12-01T14:56:53.401Z,7.73
2022-12-01T14:59:21.674Z,7.47
2022-12-01T15:01:50.154Z,7.73
2022-12-01T15:04:16.833Z,6.83
2022-12-01T15:06:44.150Z,7.60
2022-12-01T15:12:03.742Z,8.30
2022-12-01T15:14:32.877Z,7.30
2022-12-01T15:16:59.516Z,7.70
2022-12-01T15:19:35.565Z,7.60
2022-12-01T15:22:12.034Z,8.03
2022-12-01T15:24:38.859Z,9.17
2022-12-01T15:27:25.159Z,8.67
2022-12-01T15:29:52.307Z,8.53
2022-12-01T15:32:21.537Z,8.93
2022-12-01T15:34:50.815Z,7.97
2022-12-01T15:37:19.320Z,8.80
2022-12-01T15:39:48.467Z,8.70
2022-12-01T15:42:23.394Z,9.30
2022-12-01T15:45:00.308Z,8.70
2022-12-01T15:47:32.944Z,9.00
2022-12-01T15:49:59.556Z,9.17
2022-12-01T15:52:26.163Z,9.07
2022-12-01T15:54:53.030Z,10.10
2022-12-01T15:57:21.859Z,9.07
2022-12-01T15:59:53.329Z,10.63
2022-12-01T16:02:25.726Z,9.37
2022-12-01T16:05:01.570Z,9.17
2022-12-01T16:08:04.544Z,9.80
2022-12-01T16:10:30.118Z,10.17
2022-12-01T16:13:29.708Z,10.53
2022-12-01T16:15:57.762Z,18.30
2022-12-01T16:18:30.685Z,14.90
2022-12-01T16:21:02.642Z,13.37
2022-12-01T16:23:30.019Z,15.03
2022-12-01T16:26:01.740Z,13.30
2022-12-01T16:28:32.484Z,11.83
2022-12-01T16:31:00.515Z,11.80
2022-12-01T16:33:33.039Z,12.67
2022-12-01T16:36:00.338Z,13.47
2022-12-01T16:38:29.000Z,12.10
2022-12-01T16:40:58.125Z,12.47
2022-12-01T16:43:26.721Z,12.67
2022-12-01T16:46:06.702Z,13.43
2022-12-01T16:48:33.357Z,11.93
2022-12-01T16:51:03.167Z,13.50
2022-12-01T16:53:29.814Z,14.50
2022-12-01T16:55:57.955Z,13.43
2022-12-01T16:58:24.722Z,13.70
2022-12-01T17:00:51.506Z,13.23
2022-12-01T17:03:21.399Z,13.30
2022-12-01T17:05:48.366Z,13.60
2022-12-01T17:08:15.451Z,13.30
2022-12-01T17:10:42.588Z,12.20
2022-12-01T17:13:09.671Z,13.57
2022-12-01T17:15:40.439Z,13.13
2022-12-01T17:18:07.080Z,12.47
2022-12-01T17:20:35.073Z,12.00
2022-12-01T17:23:01.636Z,12.77
2022-12-01T17:25:28.181Z,13.90
2022-12-01T17:27:54.772Z,14.17
2022-12-01T17:30:21.365Z,14.27
2022-12-01T17:32:50.749Z,14.47
2022-12-01T17:35:17.677Z,13.37
2022-12-01T17:37:45.668Z,13.07
2022-12-01T17:40:13.139Z,14.23
2022-12-01T17:42:39.746Z,13.10
2022-12-01T17:45:10.222Z,13.37
2022-12-01T17:47:37.130Z,13.50
2022-12-01T17:50:04.108Z,12.93
2022-12-01T17:52:30.737Z,12.93
2022-12-01T17:54:59.040Z,15.87
2022-12-01T17:57:25.632Z,13.43
2022-12-01T17:59:52.234Z,13.57
2022-12-01T18:02:19.203Z,13.27
2022-12-01T18:04:45.874Z,13.87
2022-12-01T18:07:12.503Z,14.07
2022-12-01T18:09:40.237Z,14.40
2022-12-01T18:12:08.218Z,13.70
2022-12-01T18:14:34.853Z,14.83
2022-12-01T18:17:01.417Z,14.10
2022-12-01T18:19:28.020Z,14.60
2022-12-01T18:21:54.667Z,14.37
2022-12-01T18:24:21.225Z,14.87
2022-12-01T18:26:47.906Z,14.30
2022-12-01T18:29:17.933Z,13.37
2022-12-01T18:31:44.912Z,13.93
2022-12-01T18:34:12.074Z,13.77
2022-12-01T18:36:40.366Z,14.07
2022-12-01T18:39:09.255Z,15.17
2022-12-01T18:41:36.515Z,13.53
2022-12-01T18:44:03.695Z,14.50
2022-12-01T18:46:32.217Z,14.63
2022-12-01T18:48:58.959Z,15.37
2022-12-01T18:51:25.561Z,13.93
2022-12-01T18:53:53.727Z,14.77
2022-12-01T18:56:20.289Z,14.33
2022-12-01T18:58:46.863Z,15.30
2022-12-01T19:01:18.857Z,15.33
2022-12-01T19:03:47.017Z,13.90
2022-12-01T19:06:13.659Z,13.63
2022-12-01T19:08:40.377Z,14.03
2022-12-01T19:11:07.220Z,14.60
2022-12-01T19:13:34.533Z,14.63
2022-12-01T19:16:05.409Z,13.47
2022-12-01T19:18:32.018Z,13.73
2022-12-01T19:21:02.845Z,14.93
2022-12-01T19:23:29.469Z,14.73
2022-12-01T19:25:56.082Z,14.17
2022-12-01T19:28:22.690Z,12.87
2022-12-01T19:30:49.393Z,12.50
2022-12-01T19:33:16.073Z,12.57
2022-12-01T19:35:43.590Z,12.87
2022-12-01T19:38:11.596Z,13.30
2022-12-01T19:40:38.247Z,13.27
2022-12-01T19:43:04.991Z,12.87
2022-12-01T19:45:31.583Z,12.00
2022-12-01T19:47:58.166Z,12.13
2022-12-01T19:50:25.034Z,13.33
2022-12-01T19:52:51.623Z,12.87
2022-12-01T19:55:19.585Z,12.27
2022-12-01T19:57:49.919Z,12.50
2022-12-01T20:00:17.465Z,13.97
2022-12-01T20:02:44.022Z,14.57
2022-12-01T20:05:10.650Z,13.50
2022-12-01T20:07:37.291Z,13.57
2022-12-01T20:10:04.517Z,13.57
2022-12-01T20:12:33.892Z,13.60
2022-12-01T20:15:00.632Z,13.13
2022-12-01T20:17:27.354Z,13.87
2022-12-01T20:19:53.912Z,12.63
2022-12-01T20:22:20.472Z,12.77
2022-12-01T20:24:47.059Z,13.53
2022-12-01T20:27:13.652Z,12.23
2022-12-01T20:29:41.582Z,13.23
2022-12-01T20:32:08.259Z,12.47
2022-12-01T20:34:36.040Z,13.50
2022-12-01T20:37:03.125Z,12.80
2022-12-01T20:39:30.285Z,13.63
2022-12-01T20:41:56.934Z,12.80
2022-12-01T20:44:23.568Z,12.23
2022-12-01T20:46:51.517Z,12.70
2022-12-01T20:49:19.208Z,12.83
2022-12-01T20:51:46.000Z,13.40
2022-12-01T20:54:30.271Z,13.33
2022-12-01T20:56:58.047Z,13.10
2022-12-01T20:59:24.901Z,11.57
2022-12-01T21:01:52.834Z,13.53
2022-12-01T21:04:19.403Z,12.33
2022-12-01T21:06:46.088Z,13.40
2022-12-01T21:09:12.917Z,13.53
2022-12-01T21:11:45.160Z,12.47
2022-12-01T21:14:16.043Z,13.33
2022-12-01T21:16:44.007Z,13.00
2022-12-01T21:19:16.523Z,14.10
2022-12-01T21:21:43.084Z,13.17
2022-12-01T21:24:13.218Z,14.33
2022-12-01T21:26:41.277Z,13.43
2022-12-01T21:29:17.852Z,14.33
2022-12-01T21:31:44.579Z,14.13
2022-12-01T21:34:16.915Z,12.93
2022-12-01T21:36:44.036Z,13.13
2022-12-01T21:39:13.838Z,13.20
2022-12-01T21:41:40.670Z,12.83
2022-12-01T21:44:13.340Z,13.37
2022-12-01T21:46:39.934Z,12.47
2022-12-01T21:49:12.814Z,13.93
2022-12-01T21:51:39.443Z,13.97
2022-12-01T21:54:10.336Z,12.10
2022-12-01T21:56:36.879Z,13.33
2022-12-01T21:59:14.789Z,13.43
2022-12-01T22:01:41.401Z,12.33
2022-12-01T22:04:15.647Z,12.83
2022-12-01T22:06:46.353Z,12.80
2022-12-01T22:09:19.386Z,13.43
2022-12-01T22:11:50.754Z,13.33
2022-12-01T22:14:20.697Z,11.57
2022-12-01T22:16:51.444Z,12.07
2022-12-01T22:19:26.226Z,12.97
2022-12-01T22:21:57.487Z,12.57
2022-12-01T22:24:26.199Z,12.37
2022-12-01T22:27:02.639Z,11.50
2022-12-01T22:29:30.635Z,11.77
2022-12-01T22:32:34.415Z,12.93
2022-12-01T22:35:22.139Z,11.07
2022-12-01T22:37:50.013Z,11.03
2022-12-01T22:40:34.326Z,10.90
2022-12-01T22:43:16.366Z,11.20
2022-12-01T22:45:44.875Z,11.63
2022-12-01T22:48:27.714Z,10.33
2022-12-01T22:50:58.041Z,11.57
2022-12-01T22:53:29.286Z,11.03
2022-12-01T22:55:57.335Z,11.20
2022-12-01T22:58:26.301Z,10.20
2022-12-01T23:00:54.316Z,10.60
2022-12-01T23:03:20.989Z,10.73
2022-12-01T23:05:53.791Z,11.47
2022-12-01T23:08:23.102Z,10.73
2022-12-01T23:10:50.935Z,10.20
2022-12-01T23:13:20.761Z,10.27
2022-12-01T23:15:48.647Z,10.60
2022-12-01T23:18:19.229Z,11.93
2022-12-01T23:20:47.958Z,11.47
2022-12-01T23:23:16.493Z,10.67
2022-12-01T23:25:45.498Z,9.80
2022-12-01T23:28:13.305Z,9.97
2022-12-01T23:30:43.323Z,9.67
2022-12-01T23:33:15.296Z,9.07
2022-12-01T23:35:46.148Z,10.00
2022-12-01T23:38:16.427Z,9.50
2022-12-01T23:40:44.392Z,10.63
2022-12-01T23:43:16.890Z,9.93
2022-12-01T23:45:44.172Z,10.43
2022-12-01T23:48:17.688Z,10.17
2022-12-01T23:50:44.339Z,11.27
2022-12-01T23:53:24.090Z,10.00
2022-12-01T23:55:52.056Z,10.20
2022-12-01T23:58:18.737Z,10.73
